createdAt,value
2023-02-14T00:01:09.820Z,27.13
2023-02-14T00:04:52.506Z,24.37
2023-02-14T00:08:35.733Z,27.70
2023-02-14T00:12:19.829Z,27.97
2023-02-14T00:16:03.558Z,26.50
2023-02-14T00:19:46.294Z,25.80
2023-02-14T00:23:29.038Z,48.97
2023-02-14T00:27:11.822Z,30.90
2023-02-14T00:30:58.148Z,26.97
2023-02-14T00:34:41.823Z,29.80
2023-02-14T00:38:24.466Z,26.60
2023-02-14T00:42:07.196Z,32.43
2023-02-14T00:45:50.011Z,27.97
2023-02-14T00:49:34.341Z,28.57
2023-02-14T00:53:18.871Z,27.10
2023-02-14T00:57:01.511Z,29.17
2023-02-14T01:00:44.339Z,29.70
2023-02-14T01:04:29.172Z,26.80
2023-02-14T01:08:13.213Z,29.30
2023-02-14T01:11:55.930Z,27.97
2023-02-14T01:15:40.713Z,26.27
2023-02-14T01:19:23.369Z,26.77
2023-02-14T01:23:06.187Z,26.23
2023-02-14T01:26:50.292Z,24.27
2023-02-14T01:30:33.046Z,25.17
2023-02-14T01:34:18.841Z,27.73
2023-02-14T01:38:01.563Z,26.50
2023-02-14T01:41:50.482Z,28.77
2023-02-14T01:45:35.989Z,28.70
2023-02-14T01:49:23.486Z,30.80
2023-02-14T01:53:08.212Z,28.90
2023-02-14T01:56:53.741Z,29.73
2023-02-14T02:00:56.491Z,27.73
2023-02-14T02:04:41.884Z,27.50
2023-02-14T02:08:24.919Z,31.43
2023-02-14T02:12:07.661Z,27.20
2023-02-14T02:16:19.521Z,27.87
2023-02-14T02:20:28.860Z,24.47
2023-02-14T02:24:22.459Z,25.70
2023-02-14T02:28:25.762Z,24.50
2023-02-14T02:32:33.713Z,24.97
2023-02-14T02:36:29.557Z,23.70
2023-02-14T02:40:24.892Z,24.20
2023-02-14T02:44:15.134Z,24.90
2023-02-14T02:48:06.355Z,26.03
2023-02-14T02:52:12.266Z,24.07
2023-02-14T02:56:18.467Z,27.00
2023-02-14T03:00:03.667Z,21.87
2023-02-14T03:04:06.620Z,24.97
2023-02-14T03:07:51.200Z,23.13
2023-02-14T03:11:33.934Z,26.33
2023-02-14T03:15:23.387Z,30.03
2023-02-14T03:19:57.029Z,28.63
2023-02-14T03:23:46.181Z,28.20
2023-02-14T03:27:32.302Z,30.43
2023-02-14T03:31:21.926Z,27.17
2023-02-14T03:35:12.902Z,30.43
2023-02-14T03:39:01.387Z,35.23
2023-02-14T03:42:48.443Z,28.77
2023-02-14T03:46:33.592Z,26.27
2023-02-14T03:50:17.415Z,26.50
2023-02-14T03:54:02.641Z,26.17
2023-02-14T03:57:51.038Z,24.80
2023-02-14T04:01:38.004Z,25.33
2023-02-14T04:05:25.087Z,25.60
2023-02-14T04:09:09.108Z,25.77
2023-02-14T04:12:51.871Z,27.47
2023-02-14T04:16:55.766Z,24.27
2023-02-14T04:20:37.534Z,24.17
2023-02-14T04:24:21.734Z,21.10
2023-02-14T04:28:04.359Z,21.37
2023-02-14T04:31:47.210Z,23.13
2023-02-14T04:35:29.994Z,21.40
2023-02-14T04:39:12.706Z,23.03
2023-02-14T04:42:56.990Z,22.03
2023-02-14T04:46:39.765Z,23.10
2023-02-14T04:50:23.425Z,22.67
2023-02-14T04:54:06.178Z,22.37
2023-02-14T04:57:48.890Z,28.53
2023-02-14T05:01:32.958Z,26.03
2023-02-14T05:05:15.744Z,29.40
2023-02-14T05:08:58.475Z,25.17
2023-02-14T05:12:41.145Z,21.77
2023-02-14T05:16:24.030Z,23.53
2023-02-14T05:20:09.422Z,25.10
2023-02-14T05:23:52.063Z,33.77
2023-02-14T05:27:34.693Z,22.30
2023-02-14T05:31:17.419Z,24.37
2023-02-14T05:35:01.202Z,27.27
2023-02-14T05:38:45.436Z,24.63
2023-02-14T05:42:28.243Z,23.50
2023-02-14T05:46:10.996Z,23.27
2023-02-14T05:49:53.697Z,21.43
2023-02-14T05:53:38.061Z,23.73
2023-02-14T05:57:23.390Z,23.97
2023-02-14T06:01:09.272Z,22.43
2023-02-14T06:04:52.084Z,21.83
2023-02-14T06:08:34.982Z,26.83
2023-02-14T06:12:17.609Z,20.90
2023-02-14T06:16:01.658Z,18.53
2023-02-14T06:19:44.352Z,21.13
2023-02-14T06:23:27.037Z,18.70
2023-02-14T06:27:09.853Z,21.97
2023-02-14T06:30:52.820Z,19.83
2023-02-14T06:34:37.043Z,18.67
2023-02-14T06:38:19.730Z,18.20
2023-02-14T06:42:02.412Z,21.53
2023-02-14T06:45:45.169Z,22.60
2023-02-14T06:49:27.883Z,19.77
2023-02-14T06:53:12.033Z,21.40
2023-02-14T06:56:54.667Z,22.90
2023-02-14T07:00:40.721Z,27.63
2023-02-14T07:04:23.439Z,23.20
2023-02-14T07:08:08.126Z,23.63
2023-02-14T07:11:52.152Z,25.50
2023-02-14T07:15:35.051Z,27.63
2023-02-14T07:19:17.804Z,27.77
2023-02-14T07:23:04.323Z,30.30
2023-02-14T07:26:47.020Z,29.63
2023-02-14T07:30:31.350Z,30.00
2023-02-14T07:34:14.040Z,24.50
2023-02-14T07:37:56.740Z,23.23
2023-02-14T07:41:39.458Z,22.90
2023-02-14T07:45:22.424Z,25.50
2023-02-14T07:49:06.664Z,25.13
2023-02-14T07:52:49.470Z,22.43
2023-02-14T07:56:32.244Z,24.63
2023-02-14T08:00:15.638Z,22.73
2023-02-14T08:03:58.589Z,22.07
2023-02-14T08:07:43.070Z,23.03
2023-02-14T08:11:43.001Z,20.97
2023-02-14T08:15:43.466Z,22.60
2023-02-14T08:19:26.204Z,25.27
2023-02-14T08:23:10.264Z,24.57
2023-02-14T08:26:56.536Z,24.77
2023-02-14T08:30:39.385Z,25.57
2023-02-14T08:34:22.036Z,24.50
2023-02-14T08:38:06.011Z,26.27
2023-02-14T08:41:50.104Z,25.90
2023-02-14T08:45:33.370Z,25.90
2023-02-14T08:49:16.038Z,26.13
2023-02-14T08:53:00.465Z,24.77
2023-02-14T08:56:43.218Z,30.30
2023-02-14T09:00:27.623Z,25.70
2023-02-14T09:04:11.404Z,26.83
2023-02-14T09:07:55.934Z,27.57
2023-02-14T09:11:38.675Z,28.17
2023-02-14T09:15:21.451Z,31.93
2023-02-14T09:19:07.143Z,27.70
2023-02-14T09:22:49.828Z,26.53
2023-02-14T09:26:32.633Z,25.77
2023-02-14T09:30:16.785Z,26.17
2023-02-14T09:34:02.224Z,25.70
2023-02-14T09:38:03.849Z,26.53
2023-02-14T09:42:10.237Z,24.47
2023-02-14T09:45:54.488Z,29.27
2023-02-14T09:49:40.904Z,22.53
2023-02-14T09:53:28.079Z,29.40
2023-02-14T09:57:14.508Z,29.73
2023-02-14T10:01:01.508Z,35.00
2023-02-14T10:04:49.866Z,29.27
2023-02-14T10:08:46.619Z,33.10
2023-02-14T10:12:34.069Z,31.07
2023-02-14T10:16:20.794Z,27.63
2023-02-14T10:20:07.087Z,31.47
2023-02-14T10:23:55.251Z,30.90
2023-02-14T10:27:42.546Z,27.90
2023-02-14T10:31:27.500Z,31.43
2023-02-14T10:35:19.497Z,32.30
2023-02-14T10:39:10.023Z,32.80
2023-02-14T10:42:59.042Z,28.50
2023-02-14T10:46:44.861Z,31.20
2023-02-14T10:50:31.873Z,29.77
2023-02-14T10:54:22.017Z,33.57
2023-02-14T10:58:07.979Z,32.23
2023-02-14T11:01:51.642Z,38.93
2023-02-14T11:05:37.374Z,35.17
2023-02-14T11:09:21.920Z,42.20
2023-02-14T11:13:04.600Z,36.53
2023-02-14T11:16:51.250Z,43.37
2023-02-14T11:20:34.009Z,38.17
2023-02-14T11:24:27.657Z,35.17
2023-02-14T11:28:15.980Z,32.90
2023-02-14T11:32:08.082Z,36.53
2023-02-14T11:35:52.135Z,37.40
2023-02-14T11:39:36.483Z,33.27
2023-02-14T11:43:21.798Z,39.57
2023-02-14T11:47:19.537Z,38.17
2023-02-14T11:51:05.298Z,41.40
2023-02-14T11:54:50.257Z,37.20
2023-02-14T11:58:35.285Z,38.97
2023-02-14T12:02:33.629Z,39.47
2023-02-14T12:06:24.693Z,41.87
2023-02-14T12:10:27.770Z,38.77
2023-02-14T12:14:22.290Z,38.60
2023-02-14T12:18:39.745Z,39.13
2023-02-14T12:22:23.881Z,39.73
2023-02-14T12:26:15.520Z,42.03
2023-02-14T12:30:05.231Z,40.17
2023-02-14T12:33:50.214Z,38.07
2023-02-14T12:37:41.575Z,36.37
2023-02-14T12:41:36.842Z,35.73
2023-02-14T12:45:24.471Z,34.63
2023-02-14T12:49:27.382Z,39.43
2023-02-14T12:53:26.402Z,34.57
2023-02-14T12:57:20.314Z,33.23
2023-02-14T13:01:21.704Z,30.20
2023-02-14T13:05:17.693Z,36.70
2023-02-14T13:09:27.509Z,35.57
2023-02-14T13:13:18.989Z,36.90
2023-02-14T13:17:06.362Z,32.63
2023-02-14T13:20:52.273Z,29.30
2023-02-14T13:24:42.337Z,28.80
2023-02-14T13:28:27.262Z,29.50
2023-02-14T13:32:13.012Z,29.67
2023-02-14T13:35:58.659Z,31.83
2023-02-14T13:39:46.360Z,29.83
2023-02-14T13:43:56.174Z,26.47
2023-02-14T13:47:38.880Z,23.53
2023-02-14T13:51:21.546Z,25.03
2023-02-14T13:55:07.964Z,30.27
2023-02-14T13:58:54.115Z,28.87
2023-02-14T14:02:44.832Z,27.70
2023-02-14T14:06:27.985Z,24.93
2023-02-14T14:10:14.592Z,26.73
2023-02-14T14:14:04.211Z,23.37
2023-02-14T14:17:50.736Z,30.30
2023-02-14T14:21:34.973Z,25.57
2023-02-14T14:25:33.294Z,20.83
2023-02-14T14:29:24.307Z,26.63
2023-02-14T14:33:18.112Z,22.60
2023-02-14T14:37:06.613Z,27.27
2023-02-14T14:40:49.862Z,25.80
2023-02-14T14:44:36.740Z,22.33
2023-02-14T14:48:23.498Z,27.43
2023-02-14T14:52:07.289Z,19.93
2023-02-14T14:55:52.138Z,29.13
2023-02-14T14:59:38.091Z,27.40
2023-02-14T15:03:22.955Z,30.43
2023-02-14T15:07:19.800Z,24.23
2023-02-14T15:11:06.221Z,25.20
2023-02-14T15:14:54.744Z,30.10
2023-02-14T15:18:37.537Z,24.27
2023-02-14T15:22:22.017Z,22.70
2023-02-14T15:26:06.152Z,24.50
2023-02-14T15:29:58.270Z,25.83
2023-02-14T15:33:41.338Z,30.97
2023-02-14T15:37:27.851Z,26.43
2023-02-14T15:41:10.674Z,28.30
2023-02-14T15:45:21.258Z,24.80
2023-02-14T15:49:09.281Z,24.60
2023-02-14T15:52:53.387Z,26.20
2023-02-14T15:56:38.213Z,26.13
2023-02-14T16:00:23.742Z,25.33
2023-02-14T16:04:08.518Z,26.17
2023-02-14T16:08:00.030Z,27.70
2023-02-14T16:11:42.916Z,26.90
2023-02-14T16:15:28.336Z,26.23
2023-02-14T16:19:32.323Z,30.17
2023-02-14T16:23:17.079Z,32.53
2023-02-14T16:27:06.658Z,26.00
2023-02-14T16:30:56.313Z,27.10
2023-02-14T16:34:39.315Z,26.87
2023-02-14T16:38:22.807Z,29.40
2023-02-14T16:42:05.915Z,25.57
2023-02-14T16:45:50.311Z,23.03
2023-02-14T16:49:32.991Z,30.53
2023-02-14T16:53:25.416Z,37.07
2023-02-14T16:57:10.641Z,33.67
2023-02-14T17:00:58.552Z,30.60
2023-02-14T17:04:41.912Z,24.57
2023-02-14T17:08:25.362Z,28.73
2023-02-14T17:12:13.309Z,34.30
2023-02-14T17:15:57.730Z,32.63
2023-02-14T17:19:40.639Z,29.60
2023-02-14T17:23:24.410Z,30.30
2023-02-14T17:27:07.510Z,29.37
2023-02-14T17:30:50.253Z,35.30
2023-02-14T17:34:34.832Z,34.20
2023-02-14T17:38:18.426Z,32.17
2023-02-14T17:42:01.214Z,30.63
2023-02-14T17:45:43.875Z,30.70
2023-02-14T17:49:26.741Z,39.10
2023-02-14T17:53:12.466Z,46.63
2023-02-14T17:56:55.202Z,41.00
2023-02-14T18:00:37.905Z,34.63
2023-02-14T18:04:20.620Z,38.57
2023-02-14T18:08:03.411Z,41.33
2023-02-14T18:11:47.464Z,39.43
2023-02-14T18:15:30.799Z,35.43
2023-02-14T18:19:15.860Z,38.57
2023-02-14T18:22:58.619Z,39.53
2023-02-14T18:26:42.141Z,34.07
2023-02-14T18:30:29.287Z,37.07
2023-02-14T18:34:12.243Z,33.97
2023-02-14T18:37:54.912Z,34.43
2023-02-14T18:41:39.732Z,33.87
2023-02-14T18:45:22.512Z,32.13
2023-02-14T18:49:08.406Z,30.53
2023-02-14T18:52:51.436Z,88.30
2023-02-14T18:56:36.853Z,68.33
2023-02-14T19:00:21.757Z,39.30
2023-02-14T19:04:08.607Z,35.60
2023-02-14T19:07:55.135Z,41.20
2023-02-14T19:11:38.000Z,37.30
2023-02-14T19:15:20.893Z,33.63
2023-02-14T19:19:03.801Z,36.03
2023-02-14T19:22:48.392Z,36.77
2023-02-14T19:26:34.926Z,33.90
2023-02-14T19:30:18.233Z,34.13
2023-02-14T19:34:00.914Z,32.03
2023-02-14T19:37:43.576Z,31.17
2023-02-14T19:41:30.152Z,33.93
2023-02-14T19:45:13.313Z,31.20
2023-02-14T19:48:56.844Z,34.50
2023-02-14T19:52:39.558Z,37.17
2023-02-14T19:56:23.151Z,33.50
2023-02-14T20:00:10.992Z,34.80
2023-02-14T20:03:53.904Z,32.17
2023-02-14T20:07:36.544Z,31.97
2023-02-14T20:11:26.865Z,32.23
2023-02-14T20:15:14.003Z,29.17
2023-02-14T20:18:56.914Z,26.63
2023-02-14T20:22:41.829Z,28.03
2023-02-14T20:26:24.820Z,33.60
2023-02-14T20:30:11.465Z,32.53
2023-02-14T20:33:54.184Z,31.00
2023-02-14T20:37:36.966Z,27.90
2023-02-14T20:41:20.000Z,35.07
2023-02-14T20:45:02.689Z,30.97
2023-02-14T20:48:46.782Z,28.63
2023-02-14T20:52:29.447Z,29.87
2023-02-14T20:56:12.605Z,30.77
2023-02-14T20:59:55.302Z,26.63
2023-02-14T21:03:38.411Z,29.73
2023-02-14T21:07:22.584Z,28.43
2023-02-14T21:11:06.568Z,31.13
2023-02-14T21:14:49.205Z,26.93
2023-02-14T21:18:32.760Z,28.07
2023-02-14T21:22:17.180Z,31.93
2023-02-14T21:26:01.456Z,27.03
2023-02-14T21:29:46.964Z,28.00
2023-02-14T21:33:31.316Z,33.33
2023-02-14T21:37:14.046Z,30.03
2023-02-14T21:41:05.571Z,42.27
2023-02-14T21:45:05.748Z,28.73
2023-02-14T21:49:06.096Z,28.10
2023-02-14T21:52:48.778Z,24.30
2023-02-14T21:56:32.906Z,27.13
2023-02-14T22:00:17.382Z,26.63
2023-02-14T22:04:00.278Z,28.83
2023-02-14T22:07:42.985Z,23.50
2023-02-14T22:11:27.685Z,26.10
2023-02-14T22:15:11.874Z,21.80
2023-02-14T22:18:54.568Z,26.47
2023-02-14T22:22:39.872Z,25.17
2023-02-14T22:26:27.758Z,26.80
2023-02-14T22:30:12.815Z,28.67
2023-02-14T22:33:55.683Z,25.17
2023-02-14T22:37:38.393Z,29.60
2023-02-14T22:41:25.722Z,30.27
2023-02-14T22:45:09.279Z,26.07
2023-02-14T22:48:57.054Z,23.53
2023-02-14T22:52:39.741Z,25.73
2023-02-14T22:56:24.925Z,28.23
2023-02-14T23:00:11.565Z,27.13
2023-02-14T23:03:56.734Z,25.17
2023-02-14T23:07:39.520Z,25.40
2023-02-14T23:11:23.908Z,25.23
2023-02-14T23:15:30.129Z,30.33
2023-02-14T23:19:33.900Z,27.07
2023-02-14T23:23:16.565Z,25.10
2023-02-14T23:26:59.327Z,22.20
2023-02-14T23:30:42.022Z,21.73
2023-02-14T23:34:28.192Z,25.13
2023-02-14T23:38:10.927Z,27.37
2023-02-14T23:41:55.481Z,27.90
2023-02-14T23:45:39.743Z,22.57
2023-02-14T23:49:24.188Z,21.67
2023-02-14T23:53:08.259Z,24.57
2023-02-14T23:56:52.199Z,24.43
